createdAt,value
2018-12-16T00:00:27.644Z,1012.39
2018-12-16T00:01:27.619Z,1012.37
2018-12-16T00:02:27.587Z,1012.38
2018-12-16T00:03:27.558Z,1012.38
2018-12-16T00:04:27.530Z,1012.32
2018-12-16T00:05:27.501Z,1012.36
2018-12-16T00:06:27.472Z,1012.29
2018-12-16T00:07:27.447Z,1012.32
2018-12-16T00:08:27.414Z,1012.25
2018-12-16T00:09:27.388Z,1012.21
2018-12-16T00:10:27.358Z,1012.18
2018-12-16T00:11:27.329Z,1012.19
2018-12-16T00:12:27.300Z,1012.12
2018-12-16T00:13:27.272Z,1012.16
2018-12-16T00:14:27.244Z,1012.05
2018-12-16T00:15:27.214Z,1012.05
2018-12-16T00:16:27.186Z,1011.97
2018-12-16T00:17:27.158Z,1012.03
2018-12-16T00:18:27.127Z,1012.00
2018-12-16T00:19:27.099Z,1011.98
2018-12-16T00:20:27.072Z,1011.96
2018-12-16T00:21:27.043Z,1011.91
2018-12-16T00:22:29.921Z,1011.98
2018-12-16T00:23:26.985Z,1011.92
2018-12-16T00:24:26.958Z,1011.85
2018-12-16T00:25:26.928Z,1011.91
2018-12-16T00:26:26.901Z,1011.80
2018-12-16T00:27:26.872Z,1011.84
2018-12-16T00:28:26.844Z,1011.82
2018-12-16T00:29:26.815Z,1011.83
2018-12-16T00:30:26.786Z,1011.87
2018-12-16T00:31:26.757Z,1011.87
2018-12-16T00:32:26.726Z,1011.84
2018-12-16T00:33:26.700Z,1011.79
2018-12-16T00:34:26.670Z,1011.81
2018-12-16T00:35:26.643Z,1011.86
2018-12-16T00:36:26.614Z,1011.85
2018-12-16T00:37:26.586Z,1011.88
2018-12-16T00:38:26.557Z,1011.87
2018-12-16T00:39:26.528Z,1011.87
2018-12-16T00:40:26.501Z,1011.89
2018-12-16T00:41:26.471Z,1011.92
2018-12-16T00:42:26.442Z,1011.95
2018-12-16T00:43:26.412Z,1011.93
2018-12-16T00:44:26.384Z,1011.85
2018-12-16T00:45:26.355Z,1011.79
2018-12-16T00:46:26.326Z,1011.88
2018-12-16T00:47:26.299Z,1011.85
2018-12-16T00:48:26.268Z,1011.90
2018-12-16T00:49:26.243Z,1011.91
2018-12-16T00:50:26.212Z,1011.86
2018-12-16T00:51:26.184Z,1011.98
2018-12-16T00:52:26.154Z,1011.95
2018-12-16T00:53:26.127Z,1011.91
2018-12-16T00:54:26.097Z,1011.94
2018-12-16T00:55:26.067Z,1011.91
2018-12-16T00:56:26.040Z,1011.93
2018-12-16T00:57:26.011Z,1011.89
2018-12-16T00:58:25.981Z,1011.91
2018-12-16T00:59:25.954Z,1011.92
2018-12-16T01:00:25.925Z,1011.89
2018-12-16T01:01:25.896Z,1011.92
2018-12-16T01:02:25.869Z,1011.89
2018-12-16T01:03:25.839Z,1011.87
2018-12-16T01:04:25.810Z,1011.83
2018-12-16T01:05:25.780Z,1011.82
2018-12-16T01:06:25.754Z,1011.86
2018-12-16T01:07:25.723Z,1011.85
2018-12-16T01:08:25.696Z,1011.82
2018-12-16T01:09:25.667Z,1011.84
2018-12-16T01:10:25.636Z,1011.86
2018-12-16T01:11:25.610Z,1011.80
2018-12-16T01:12:25.580Z,1011.70
2018-12-16T01:13:25.551Z,1011.78
2018-12-16T01:14:25.521Z,1011.78
2018-12-16T01:15:25.493Z,1011.77
2018-12-16T01:16:25.471Z,1011.74
2018-12-16T01:17:25.435Z,1011.75
2018-12-16T01:18:25.408Z,1011.79
2018-12-16T01:19:25.377Z,1011.83
2018-12-16T01:20:25.349Z,1011.83
2018-12-16T01:21:25.322Z,1011.78
2018-12-16T01:22:25.292Z,1011.84
2018-12-16T01:23:25.264Z,1011.76
2018-12-16T01:24:25.236Z,1011.67
2018-12-16T01:25:25.272Z,1011.71
2018-12-16T01:26:25.178Z,1011.80
2018-12-16T01:27:25.148Z,1011.81
2018-12-16T01:28:25.122Z,1011.75
2018-12-16T01:29:25.091Z,1011.83
2018-12-16T01:30:25.062Z,1011.78
2018-12-16T01:31:25.033Z,1011.80
2018-12-16T01:32:25.004Z,1011.73
2018-12-16T01:33:24.977Z,1011.76
2018-12-16T01:34:24.947Z,1011.75
2018-12-16T01:35:24.921Z,1011.79
2018-12-16T01:36:24.892Z,1011.68
2018-12-16T01:37:24.861Z,1011.72
2018-12-16T01:38:24.833Z,1011.67
2018-12-16T01:39:24.803Z,1011.74
2018-12-16T01:40:24.775Z,1011.67
2018-12-16T01:41:24.747Z,1011.70
2018-12-16T01:42:24.719Z,1011.66
2018-12-16T01:43:24.688Z,1011.64
2018-12-16T01:44:24.659Z,1011.69
2018-12-16T01:45:24.633Z,1011.64
2018-12-16T01:46:24.600Z,1011.60
2018-12-16T01:47:24.573Z,1011.57
2018-12-16T01:48:24.545Z,1011.61
2018-12-16T01:49:24.517Z,1011.55
2018-12-16T01:50:24.487Z,1011.52
2018-12-16T01:51:24.458Z,1011.52
2018-12-16T01:52:24.429Z,1011.49
2018-12-16T01:53:24.399Z,1011.45
2018-12-16T01:54:24.374Z,1011.44
2018-12-16T01:55:24.342Z,1011.41
2018-12-16T01:56:24.315Z,1011.39
2018-12-16T01:57:24.287Z,1011.34
2018-12-16T01:58:24.255Z,1011.27
2018-12-16T01:59:24.227Z,1011.27
2018-12-16T02:00:24.198Z,1011.27
2018-12-16T02:01:24.170Z,1011.24
2018-12-16T02:02:24.140Z,1011.19
2018-12-16T02:03:24.114Z,1011.16
2018-12-16T02:04:24.084Z,1011.13
2018-12-16T02:05:24.054Z,1011.14
2018-12-16T02:06:24.026Z,1011.05
2018-12-16T02:07:23.996Z,1011.06
2018-12-16T02:08:23.967Z,1011.03
2018-12-16T02:09:23.938Z,1011.03
2018-12-16T02:10:23.911Z,1010.96
2018-12-16T02:11:23.881Z,1010.96
2018-12-16T02:12:23.853Z,1010.98
2018-12-16T02:13:23.824Z,1010.95
2018-12-16T02:14:23.794Z,1010.92
2018-12-16T02:15:23.764Z,1010.86
2018-12-16T02:16:23.736Z,1010.84
2018-12-16T02:17:23.706Z,1010.83
2018-12-16T02:18:23.679Z,1010.77
2018-12-16T02:19:23.650Z,1010.78
2018-12-16T02:20:23.622Z,1010.77
2018-12-16T02:21:23.593Z,1010.75
2018-12-16T02:22:23.564Z,1010.69
2018-12-16T02:23:23.534Z,1010.72
2018-12-16T02:24:23.504Z,1010.71
2018-12-16T02:25:23.476Z,1010.66
2018-12-16T02:26:23.446Z,1010.62
2018-12-16T02:27:23.416Z,1010.65
2018-12-16T02:28:23.388Z,1010.60
2018-12-16T02:29:23.361Z,1010.60
2018-12-16T02:30:23.332Z,1010.60
2018-12-16T02:31:23.305Z,1010.56
2018-12-16T02:32:23.275Z,1010.53
2018-12-16T02:33:23.245Z,1010.59
2018-12-16T02:34:23.214Z,1010.54
2018-12-16T02:35:23.187Z,1010.55
2018-12-16T02:36:23.158Z,1010.51
2018-12-16T02:37:23.129Z,1010.49
2018-12-16T02:38:23.105Z,1010.46
2018-12-16T02:39:23.070Z,1010.50
2018-12-16T02:40:23.045Z,1010.43
2018-12-16T02:41:23.015Z,1010.46
2018-12-16T02:42:22.986Z,1010.44
2018-12-16T02:43:22.953Z,1010.43
2018-12-16T02:44:22.924Z,1010.44
2018-12-16T02:45:22.898Z,1010.40
2018-12-16T02:46:22.866Z,1010.35
2018-12-16T02:47:22.838Z,1010.34
2018-12-16T02:48:22.810Z,1010.36
2018-12-16T02:49:22.781Z,1010.32
2018-12-16T02:50:22.751Z,1010.34
2018-12-16T02:51:22.723Z,1010.29
2018-12-16T02:52:22.695Z,1010.27
2018-12-16T02:53:22.665Z,1010.24
2018-12-16T02:54:22.636Z,1010.22
2018-12-16T02:55:22.607Z,1010.21
2018-12-16T02:56:22.578Z,1010.18
2018-12-16T02:57:22.549Z,1010.14
2018-12-16T02:58:22.520Z,1010.14
2018-12-16T02:59:22.494Z,1010.11
2018-12-16T03:00:22.462Z,1010.11
2018-12-16T03:01:22.437Z,1010.03
2018-12-16T03:02:22.403Z,1010.04
2018-12-16T03:03:22.374Z,1010.05
2018-12-16T03:04:22.349Z,1010.05
2018-12-16T03:05:22.318Z,1010.06
2018-12-16T03:06:22.289Z,1010.02
2018-12-16T03:07:22.259Z,1010.00
2018-12-16T03:08:22.230Z,1009.96
2018-12-16T03:09:22.203Z,1009.92
2018-12-16T03:10:22.174Z,1009.94
2018-12-16T03:11:22.144Z,1009.91
2018-12-16T03:12:22.114Z,1009.85
2018-12-16T03:13:22.089Z,1009.84
2018-12-16T03:14:22.058Z,1009.82
2018-12-16T03:15:22.026Z,1009.82
2018-12-16T03:16:21.997Z,1009.79
2018-12-16T03:17:21.972Z,1009.80
2018-12-16T03:18:21.938Z,1009.83
2018-12-16T03:19:21.910Z,1009.81
2018-12-16T03:20:21.898Z,1009.75
2018-12-16T03:21:21.853Z,1009.75
2018-12-16T03:22:21.822Z,1009.73
2018-12-16T03:23:21.793Z,1009.70
2018-12-16T03:24:21.766Z,1009.69
2018-12-16T03:25:21.736Z,1009.69
2018-12-16T03:26:21.707Z,1009.65
2018-12-16T03:27:21.677Z,1009.61
2018-12-16T03:28:21.651Z,1009.61
2018-12-16T03:29:21.618Z,1009.60
2018-12-16T03:30:23.370Z,1009.56
2018-12-16T03:31:21.562Z,1009.53
2018-12-16T03:32:21.537Z,1009.48
2018-12-16T03:33:21.565Z,1009.46
2018-12-16T03:34:21.475Z,1009.45
2018-12-16T03:35:21.444Z,1009.43
2018-12-16T03:36:21.416Z,1009.39
2018-12-16T03:37:21.388Z,1009.40
2018-12-16T03:38:21.357Z,1009.40
2018-12-16T03:39:21.327Z,1009.34
2018-12-16T03:40:21.298Z,1009.36
2018-12-16T03:41:21.271Z,1009.32
2018-12-16T03:42:21.244Z,1009.34
2018-12-16T03:43:21.209Z,1009.26
2018-12-16T03:44:21.181Z,1009.29
2018-12-16T03:45:21.155Z,1009.18
2018-12-16T03:46:21.123Z,1009.17
2018-12-16T03:47:21.094Z,1009.12
2018-12-16T03:48:21.065Z,1009.14
2018-12-16T03:49:21.036Z,1009.11
2018-12-16T03:50:21.007Z,1009.12
2018-12-16T03:51:20.978Z,1009.08
2018-12-16T03:52:20.947Z,1009.08
2018-12-16T03:53:20.918Z,1009.07
2018-12-16T03:54:20.894Z,1009.03
2018-12-16T03:55:20.860Z,1009.06
2018-12-16T03:56:20.830Z,1009.11
2018-12-16T03:57:20.801Z,1009.07
2018-12-16T03:58:20.771Z,1009.07
2018-12-16T03:59:20.752Z,1009.04
2018-12-16T04:00:20.718Z,1009.04
2018-12-16T04:01:20.687Z,1009.03
2018-12-16T04:02:20.654Z,1009.03
2018-12-16T04:03:20.625Z,1009.02
2018-12-16T04:04:20.595Z,1008.98
2018-12-16T04:05:20.567Z,1008.96
2018-12-16T04:06:20.538Z,1008.90
2018-12-16T04:07:20.509Z,1008.81
2018-12-16T04:08:20.482Z,1008.75
2018-12-16T04:09:20.451Z,1008.70
2018-12-16T04:10:20.420Z,1008.63
2018-12-16T04:11:20.390Z,1008.64
2018-12-16T04:12:20.428Z,1008.60
2018-12-16T04:13:20.334Z,1008.59
2018-12-16T04:14:20.301Z,1008.51
2018-12-16T04:15:20.273Z,1008.47
2018-12-16T04:16:20.244Z,1008.46
2018-12-16T04:17:20.215Z,1008.44
2018-12-16T04:18:20.187Z,1008.40
2018-12-16T04:19:20.159Z,1008.46
2018-12-16T04:20:20.128Z,1008.48
2018-12-16T04:21:20.102Z,1008.45
2018-12-16T04:22:20.071Z,1008.49
2018-12-16T04:23:27.288Z,1008.45
2018-12-16T04:24:20.016Z,1008.48
2018-12-16T04:25:19.980Z,1008.49
2018-12-16T04:26:19.951Z,1008.47
2018-12-16T04:27:19.923Z,1008.45
2018-12-16T04:28:19.894Z,1008.45
2018-12-16T04:29:19.866Z,1008.40
2018-12-16T04:30:19.836Z,1008.38
2018-12-16T04:31:19.805Z,1008.44
2018-12-16T04:32:19.776Z,1008.49
2018-12-16T04:33:19.745Z,1008.47
2018-12-16T04:34:19.717Z,1008.51
2018-12-16T04:35:19.689Z,1008.54
2018-12-16T04:36:19.658Z,1008.53
2018-12-16T04:37:19.633Z,1008.56
2018-12-16T04:38:19.605Z,1008.56
2018-12-16T04:39:19.570Z,1008.54
2018-12-16T04:40:19.584Z,1008.52
2018-12-16T04:41:19.515Z,1008.51
2018-12-16T04:42:19.484Z,1008.50
2018-12-16T04:43:19.454Z,1008.53
2018-12-16T04:44:19.424Z,1008.53
2018-12-16T04:45:19.396Z,1008.51
2018-12-16T04:46:19.365Z,1008.50
2018-12-16T04:47:19.340Z,1008.51
2018-12-16T04:48:19.307Z,1008.47
2018-12-16T04:49:19.278Z,1008.48
2018-12-16T04:50:19.258Z,1008.47
2018-12-16T04:51:19.223Z,1008.45
2018-12-16T04:52:19.191Z,1008.43
2018-12-16T04:53:19.167Z,1008.43
2018-12-16T04:54:19.132Z,1008.42
2018-12-16T04:55:19.103Z,1008.40
2018-12-16T04:56:19.076Z,1008.39
2018-12-16T04:57:19.048Z,1008.38
2018-12-16T04:58:19.015Z,1008.34
2018-12-16T04:59:18.987Z,1008.39
2018-12-16T05:00:18.958Z,1008.39
2018-12-16T05:01:18.929Z,1008.35
2018-12-16T05:02:18.899Z,1008.36
2018-12-16T05:03:18.871Z,1008.31
2018-12-16T05:04:18.843Z,1008.33
2018-12-16T05:05:18.815Z,1008.25
2018-12-16T05:06:19.752Z,1008.27
2018-12-16T05:07:18.757Z,1008.27
2018-12-16T05:08:18.726Z,1008.24
2018-12-16T05:09:18.698Z,1008.20
2018-12-16T05:10:18.670Z,1008.17
2018-12-16T05:11:18.639Z,1008.16
2018-12-16T05:12:18.611Z,1008.15
2018-12-16T05:13:18.582Z,1008.11
2018-12-16T05:14:18.553Z,1008.04
2018-12-16T05:15:18.526Z,1008.06
2018-12-16T05:16:18.500Z,1008.10
2018-12-16T05:17:18.467Z,1008.12
2018-12-16T05:18:18.438Z,1008.06
2018-12-16T05:19:18.409Z,1008.06
2018-12-16T05:20:18.380Z,1008.06
2018-12-16T05:21:18.352Z,1008.04
2018-12-16T05:22:18.324Z,1008.05
2018-12-16T05:23:18.293Z,1007.99
2018-12-16T05:24:18.266Z,1008.01
2018-12-16T05:25:18.236Z,1007.98
2018-12-16T05:26:18.207Z,1007.95
2018-12-16T05:27:18.179Z,1007.91
2018-12-16T05:28:18.150Z,1007.95
2018-12-16T05:29:18.121Z,1007.99
2018-12-16T05:30:18.092Z,1007.97
2018-12-16T05:31:18.064Z,1007.98
2018-12-16T05:32:18.034Z,1007.96
2018-12-16T05:33:18.006Z,1007.96
2018-12-16T05:34:17.976Z,1007.93
2018-12-16T05:35:17.950Z,1007.91
2018-12-16T05:36:17.920Z,1007.91
2018-12-16T05:37:17.890Z,1007.86
2018-12-16T05:38:17.862Z,1007.86
2018-12-16T05:39:17.832Z,1007.78
2018-12-16T05:40:17.807Z,1007.75
2018-12-16T05:41:17.777Z,1007.69
2018-12-16T05:42:17.746Z,1007.63
2018-12-16T05:43:17.718Z,1007.58
2018-12-16T05:44:17.689Z,1007.51
2018-12-16T05:45:17.660Z,1007.54
2018-12-16T05:46:17.632Z,1007.46
2018-12-16T05:47:17.603Z,1007.42
2018-12-16T05:48:17.574Z,1007.40
2018-12-16T05:49:17.546Z,1007.44
2018-12-16T05:50:17.515Z,1007.43
2018-12-16T05:51:17.486Z,1007.38
2018-12-16T05:52:17.458Z,1007.34
2018-12-16T05:53:17.431Z,1007.35
2018-12-16T05:54:17.400Z,1007.37
2018-12-16T05:55:17.372Z,1007.31
2018-12-16T05:56:17.342Z,1007.35
2018-12-16T05:57:17.314Z,1007.29
2018-12-16T05:58:17.284Z,1007.24
2018-12-16T05:59:17.256Z,1007.29
2018-12-16T06:00:17.228Z,1007.25
2018-12-16T06:01:17.199Z,1007.36
2018-12-16T06:02:17.170Z,1007.33
2018-12-16T06:03:17.143Z,1007.34
2018-12-16T06:04:17.113Z,1007.42
2018-12-16T06:05:17.087Z,1007.41
2018-12-16T06:06:17.054Z,1007.40
2018-12-16T06:07:17.028Z,1007.39
2018-12-16T06:08:16.998Z,1007.34
2018-12-16T06:09:16.974Z,1007.37
2018-12-16T06:10:16.941Z,1007.32
2018-12-16T06:11:16.911Z,1007.29
2018-12-16T06:12:16.884Z,1007.35
2018-12-16T06:13:16.856Z,1007.34
2018-12-16T06:14:16.827Z,1007.33
2018-12-16T06:15:16.795Z,1007.39
2018-12-16T06:16:16.772Z,1007.37
2018-12-16T06:17:16.740Z,1007.41
2018-12-16T06:18:16.710Z,1007.39
2018-12-16T06:19:16.682Z,1007.39
2018-12-16T06:20:16.653Z,1007.40
2018-12-16T06:21:16.624Z,1007.40
2018-12-16T06:22:16.597Z,1007.44
2018-12-16T06:23:16.574Z,1007.37
2018-12-16T06:24:16.539Z,1007.40
2018-12-16T06:25:16.512Z,1007.39
2018-12-16T06:26:16.482Z,1007.40
2018-12-16T06:27:16.451Z,1007.43
2018-12-16T06:28:16.423Z,1007.37
2018-12-16T06:29:16.395Z,1007.42
2018-12-16T06:30:16.367Z,1007.42
2018-12-16T06:31:16.337Z,1007.44
2018-12-16T06:32:16.308Z,1007.46
2018-12-16T06:33:16.281Z,1007.47
2018-12-16T06:34:16.251Z,1007.46
2018-12-16T06:35:16.222Z,1007.48
2018-12-16T06:36:16.200Z,1007.54
2018-12-16T06:37:16.167Z,1007.51
2018-12-16T06:38:16.135Z,1007.50
2018-12-16T06:39:16.109Z,1007.52
2018-12-16T06:40:16.078Z,1007.46
2018-12-16T06:41:16.051Z,1007.43
2018-12-16T06:42:16.021Z,1007.46
2018-12-16T06:43:15.993Z,1007.40
2018-12-16T06:44:15.965Z,1007.44
2018-12-16T06:45:15.936Z,1007.45
2018-12-16T06:46:15.908Z,1007.37
2018-12-16T06:47:15.880Z,1007.36
2018-12-16T06:48:15.851Z,1007.42
2018-12-16T06:49:15.820Z,1007.39
2018-12-16T06:50:15.792Z,1007.44
2018-12-16T06:51:15.765Z,1007.38
2018-12-16T06:52:15.735Z,1007.39
2018-12-16T06:53:15.707Z,1007.40
2018-12-16T06:54:15.677Z,1007.36
2018-12-16T06:55:15.649Z,1007.39
2018-12-16T06:56:15.621Z,1007.42
2018-12-16T06:57:15.591Z,1007.32
2018-12-16T06:58:15.566Z,1007.36
2018-12-16T06:59:15.534Z,1007.29
2018-12-16T07:00:15.509Z,1007.35
2018-12-16T07:01:16.100Z,1007.28
2018-12-16T07:02:15.450Z,1007.30
2018-12-16T07:03:15.424Z,1007.25
2018-12-16T07:04:15.390Z,1007.24
2018-12-16T07:05:15.363Z,1007.30
2018-12-16T07:06:15.333Z,1007.25
2018-12-16T07:07:15.306Z,1007.25
2018-12-16T07:08:15.279Z,1007.23
2018-12-16T07:09:15.248Z,1007.27
2018-12-16T07:10:15.219Z,1007.26
2018-12-16T07:11:15.192Z,1007.22
2018-12-16T07:12:15.162Z,1007.22
2018-12-16T07:13:15.134Z,1007.20
2018-12-16T07:14:15.105Z,1007.24
2018-12-16T07:15:15.075Z,1007.18
2018-12-16T07:16:15.069Z,1007.14
2018-12-16T07:17:15.019Z,1007.16
2018-12-16T07:18:15.010Z,1007.15
2018-12-16T07:19:14.971Z,1007.12
2018-12-16T07:20:14.972Z,1007.15
2018-12-16T07:21:14.910Z,1007.10
2018-12-16T07:22:14.883Z,1007.08
2018-12-16T07:23:14.865Z,1007.08
2018-12-16T07:24:14.822Z,1007.04
2018-12-16T07:25:14.792Z,1007.12
2018-12-16T07:26:14.803Z,1007.06
2018-12-16T07:27:14.732Z,1007.10
2018-12-16T07:28:14.785Z,1007.06
2018-12-16T07:29:14.693Z,1007.06
2018-12-16T07:30:14.680Z,1007.10
2018-12-16T07:31:14.618Z,1007.16
2018-12-16T07:32:14.590Z,1007.17
2018-12-16T07:33:14.571Z,1007.16
2018-12-16T07:34:14.533Z,1007.12
2018-12-16T07:35:14.530Z,1007.11
2018-12-16T07:36:14.510Z,1007.12
2018-12-16T07:37:19.059Z,1007.12
2018-12-16T07:38:14.418Z,1007.12
2018-12-16T07:39:14.388Z,1007.10
2018-12-16T07:40:14.383Z,1007.09
2018-12-16T07:41:14.331Z,1007.10
2018-12-16T07:42:14.304Z,1007.16
2018-12-16T07:43:14.313Z,1007.15
2018-12-16T07:44:14.245Z,1007.16
2018-12-16T07:45:14.218Z,1007.17
2018-12-16T07:46:14.193Z,1007.19
2018-12-16T07:47:14.157Z,1007.17
2018-12-16T07:48:14.130Z,1007.12
2018-12-16T07:49:14.102Z,1007.08
2018-12-16T07:50:14.089Z,1007.06
2018-12-16T07:51:14.044Z,1007.05
2018-12-16T07:52:14.017Z,1007.01
2018-12-16T07:53:13.989Z,1006.99
2018-12-16T07:54:16.187Z,1006.96
2018-12-16T07:55:13.929Z,1006.97
2018-12-16T07:56:13.941Z,1007.01
2018-12-16T07:57:13.873Z,1007.00
2018-12-16T07:58:13.889Z,1006.95
2018-12-16T07:59:13.855Z,1007.02
2018-12-16T08:00:13.786Z,1007.04
2018-12-16T08:01:13.884Z,1007.07
2018-12-16T08:02:13.729Z,1007.06
2018-12-16T08:03:13.704Z,1007.05
2018-12-16T08:04:13.678Z,1007.05
2018-12-16T08:05:13.644Z,1007.07
2018-12-16T08:06:13.631Z,1007.02
2018-12-16T08:07:13.586Z,1007.07
2018-12-16T08:08:13.559Z,1007.09
2018-12-16T08:09:13.530Z,1007.04
2018-12-16T08:10:13.501Z,1007.04
2018-12-16T08:11:13.474Z,1007.03
2018-12-16T08:12:13.444Z,1007.03
2018-12-16T08:13:13.417Z,1006.97
2018-12-16T08:14:13.387Z,1006.95
2018-12-16T08:15:13.357Z,1006.94
2018-12-16T08:16:13.333Z,1006.88
2018-12-16T08:17:13.303Z,1006.89
2018-12-16T08:18:13.273Z,1006.85
2018-12-16T08:19:13.245Z,1006.82
2018-12-16T08:20:13.217Z,1006.87
2018-12-16T08:21:13.189Z,1006.83
2018-12-16T08:22:13.160Z,1006.87
2018-12-16T08:23:13.131Z,1006.80
2018-12-16T08:24:13.105Z,1006.81
2018-12-16T08:25:13.076Z,1006.85
2018-12-16T08:26:13.046Z,1006.84
2018-12-16T08:27:13.018Z,1006.85
2018-12-16T08:28:12.989Z,1006.86
2018-12-16T08:29:12.963Z,1006.85
2018-12-16T08:30:12.932Z,1006.84
2018-12-16T08:31:12.908Z,1006.87
2018-12-16T08:32:12.876Z,1006.86
2018-12-16T08:33:12.849Z,1006.86
2018-12-16T08:34:12.818Z,1006.85
2018-12-16T08:35:12.790Z,1006.91
2018-12-16T08:36:12.762Z,1006.86
2018-12-16T08:37:12.735Z,1006.83
2018-12-16T08:38:12.705Z,1006.82
2018-12-16T08:39:12.679Z,1006.84
2018-12-16T08:40:12.650Z,1006.77
2018-12-16T08:41:12.622Z,1006.77
2018-12-16T08:42:12.593Z,1006.76
2018-12-16T08:43:12.564Z,1006.73
2018-12-16T08:44:12.536Z,1006.74
2018-12-16T08:45:12.508Z,1006.80
2018-12-16T08:46:12.480Z,1006.71
2018-12-16T08:47:12.451Z,1006.75
2018-12-16T08:48:12.422Z,1006.66
2018-12-16T08:49:12.396Z,1006.68
2018-12-16T08:50:12.365Z,1006.67
2018-12-16T08:51:12.339Z,1006.66
2018-12-16T08:52:12.313Z,1006.65
2018-12-16T08:53:12.283Z,1006.66
2018-12-16T08:54:12.252Z,1006.72
2018-12-16T08:55:12.225Z,1006.70
2018-12-16T08:56:12.197Z,1006.74
2018-12-16T08:57:12.172Z,1006.67
2018-12-16T08:58:12.141Z,1006.70
2018-12-16T08:59:12.113Z,1006.71
2018-12-16T09:00:12.084Z,1006.67
2018-12-16T09:01:12.057Z,1006.70
2018-12-16T09:02:12.027Z,1006.74
2018-12-16T09:03:12.003Z,1006.66
2018-12-16T09:04:11.972Z,1006.66
2018-12-16T09:05:11.943Z,1006.71
2018-12-16T09:06:11.914Z,1006.67
2018-12-16T09:07:11.887Z,1006.77
2018-12-16T09:08:11.860Z,1006.77
2018-12-16T09:09:11.832Z,1006.75
2018-12-16T09:10:11.806Z,1006.82
2018-12-16T09:11:11.774Z,1006.79
2018-12-16T09:12:11.750Z,1006.85
2018-12-16T09:13:11.720Z,1006.85
2018-12-16T09:14:11.696Z,1006.78
2018-12-16T09:15:11.663Z,1006.83
2018-12-16T09:16:11.640Z,1006.77
2018-12-16T09:17:11.607Z,1006.68
2018-12-16T09:18:11.582Z,1006.75
2018-12-16T09:19:11.551Z,1006.68
2018-12-16T09:20:11.525Z,1006.69
2018-12-16T09:21:11.495Z,1006.70
2018-12-16T09:22:11.472Z,1006.77
2018-12-16T09:23:11.439Z,1006.74
2018-12-16T09:24:11.413Z,1006.66
2018-12-16T09:25:11.383Z,1006.72
2018-12-16T09:26:11.354Z,1006.74
2018-12-16T09:27:11.331Z,1006.72
2018-12-16T09:28:11.300Z,1006.72
2018-12-16T09:29:11.273Z,1006.77
2018-12-16T09:30:11.243Z,1006.77
2018-12-16T09:31:11.215Z,1006.80
2018-12-16T09:32:11.193Z,1006.75
2018-12-16T09:33:11.159Z,1006.74
2018-12-16T09:34:11.133Z,1006.74
2018-12-16T09:35:11.111Z,1006.70
2018-12-16T09:36:11.078Z,1006.72
2018-12-16T09:37:11.050Z,1006.73
2018-12-16T09:38:11.092Z,1006.74
2018-12-16T09:39:11.000Z,1006.71
2018-12-16T09:40:10.967Z,1006.63
2018-12-16T09:41:10.964Z,1006.66
2018-12-16T09:42:10.911Z,1006.63
2018-12-16T09:43:10.882Z,1006.66
2018-12-16T09:44:10.856Z,1006.71
2018-12-16T09:45:10.827Z,1006.70
2018-12-16T09:46:10.800Z,1006.69
2018-12-16T09:47:10.772Z,1006.70
2018-12-16T09:48:10.743Z,1006.68
2018-12-16T09:49:10.716Z,1006.68
2018-12-16T09:50:10.688Z,1006.74
2018-12-16T09:51:10.660Z,1006.66
2018-12-16T09:52:10.633Z,1006.71
2018-12-16T09:53:10.606Z,1006.65
2018-12-16T09:54:10.577Z,1006.72
2018-12-16T09:55:10.552Z,1006.67
2018-12-16T09:56:10.525Z,1006.64
2018-12-16T09:57:10.496Z,1006.58
2018-12-16T09:58:10.467Z,1006.60
2018-12-16T09:59:10.441Z,1006.54
2018-12-16T10:00:10.420Z,1006.54
2018-12-16T10:01:10.387Z,1006.36
2018-12-16T10:02:10.361Z,1006.52
2018-12-16T10:03:10.330Z,1006.51
2018-12-16T10:04:10.304Z,1006.49
2018-12-16T10:05:10.276Z,1006.46
2018-12-16T10:06:10.248Z,1006.46
2018-12-16T10:07:10.221Z,1006.50
2018-12-16T10:08:10.193Z,1006.50
2018-12-16T10:09:10.166Z,1006.46
2018-12-16T10:10:10.140Z,1006.44
2018-12-16T10:11:10.115Z,1006.44
2018-12-16T10:12:10.083Z,1006.37
2018-12-16T10:13:10.058Z,1006.41
2018-12-16T10:14:10.103Z,1006.35
2018-12-16T10:15:10.004Z,1006.33
2018-12-16T10:16:09.977Z,1006.33
2018-12-16T10:17:09.948Z,1006.32
2018-12-16T10:18:09.922Z,1006.30
2018-12-16T10:19:09.892Z,1006.30
2018-12-16T10:20:09.867Z,1006.24
2018-12-16T10:21:09.841Z,1006.23
2018-12-16T10:22:09.812Z,1006.22
2018-12-16T10:23:09.786Z,1006.24
2018-12-16T10:24:09.759Z,1006.22
2018-12-16T10:25:09.731Z,1006.12
2018-12-16T10:26:09.704Z,1006.17
2018-12-16T10:27:09.675Z,1006.15
2018-12-16T10:28:09.651Z,1006.16
2018-12-16T10:29:09.623Z,1006.16
2018-12-16T10:30:09.595Z,1006.11
2018-12-16T10:31:09.569Z,1006.16
2018-12-16T10:32:09.542Z,1006.19
2018-12-16T10:33:09.515Z,1006.13
2018-12-16T10:34:09.524Z,1006.15
2018-12-16T10:35:09.460Z,1006.09
2018-12-16T10:36:09.432Z,1006.09
2018-12-16T10:37:09.406Z,1005.98
2018-12-16T10:38:09.379Z,1006.00
2018-12-16T10:39:09.350Z,1006.04
2018-12-16T10:40:09.325Z,1005.99
2018-12-16T10:41:09.296Z,1005.99
2018-12-16T10:42:09.271Z,1005.98
2018-12-16T10:43:09.241Z,1005.93
2018-12-16T10:44:09.214Z,1005.96
2018-12-16T10:45:09.187Z,1005.80
2018-12-16T10:46:09.159Z,1005.96
2018-12-16T10:47:09.132Z,1005.99
2018-12-16T10:48:09.105Z,1005.91
2018-12-16T10:49:09.079Z,1005.85
2018-12-16T10:50:09.051Z,1005.85
2018-12-16T10:51:09.025Z,1005.88
2018-12-16T10:52:08.998Z,1005.91
2018-12-16T10:53:08.970Z,1005.89
2018-12-16T10:54:08.942Z,1005.92
2018-12-16T10:55:08.916Z,1005.90
2018-12-16T10:56:08.888Z,1005.90
2018-12-16T10:57:08.863Z,1005.90
2018-12-16T10:58:08.836Z,1005.87
2018-12-16T10:59:08.808Z,1005.87
2018-12-16T11:00:08.783Z,1005.88
2018-12-16T11:01:08.755Z,1005.93
2018-12-16T11:02:08.726Z,1005.89
2018-12-16T11:03:08.700Z,1005.83
2018-12-16T11:04:08.674Z,1005.88
2018-12-16T11:05:08.651Z,1005.87
2018-12-16T11:06:08.621Z,1005.94
2018-12-16T11:07:08.594Z,1005.92
2018-12-16T11:08:08.568Z,1005.86
2018-12-16T11:09:08.542Z,1005.80
2018-12-16T11:10:08.514Z,1005.78
2018-12-16T11:11:08.489Z,1005.79
2018-12-16T11:12:08.462Z,1005.70
2018-12-16T11:13:08.437Z,1005.72
2018-12-16T11:14:08.408Z,1005.63
2018-12-16T11:15:08.384Z,1005.59
2018-12-16T11:16:08.361Z,1005.59
2018-12-16T11:17:08.332Z,1005.61
2018-12-16T11:18:08.308Z,1005.60
2018-12-16T11:19:08.288Z,1005.60
2018-12-16T11:20:08.255Z,1005.56
2018-12-16T11:21:08.227Z,1005.58
2018-12-16T11:22:08.201Z,1005.54
2018-12-16T11:23:08.176Z,1005.54
2018-12-16T11:24:08.152Z,1005.54
2018-12-16T11:25:08.127Z,1005.55
2018-12-16T11:26:08.097Z,1005.53
2018-12-16T11:27:08.071Z,1005.46
2018-12-16T11:28:08.047Z,1005.51
2018-12-16T11:29:08.018Z,1005.53
2018-12-16T11:30:07.992Z,1005.51
2018-12-16T11:31:07.967Z,1005.50
2018-12-16T11:32:07.943Z,1005.46
2018-12-16T11:33:07.916Z,1005.44
2018-12-16T11:34:07.889Z,1005.41
2018-12-16T11:35:07.865Z,1005.38
2018-12-16T11:36:07.835Z,1005.37
2018-12-16T11:37:07.810Z,1005.38
2018-12-16T11:38:07.784Z,1005.34
2018-12-16T11:39:07.755Z,1005.32
2018-12-16T11:40:07.730Z,1005.31
2018-12-16T11:41:07.706Z,1005.30
2018-12-16T11:42:07.678Z,1005.28
2018-12-16T11:43:07.651Z,1005.23
2018-12-16T11:44:07.625Z,1005.22
2018-12-16T11:45:07.596Z,1005.18
2018-12-16T11:46:07.571Z,1005.15
2018-12-16T11:47:07.547Z,1005.14
2018-12-16T11:48:07.518Z,1005.12
2018-12-16T11:49:07.491Z,1005.08
2018-12-16T11:50:07.464Z,1005.05
2018-12-16T11:51:07.435Z,1005.01
2018-12-16T11:52:07.411Z,1005.00
2018-12-16T11:53:07.384Z,1004.98
2018-12-16T11:54:07.357Z,1004.97
2018-12-16T11:55:12.779Z,1004.94
2018-12-16T11:56:07.304Z,1004.87
2018-12-16T11:57:07.277Z,1004.92
2018-12-16T11:58:07.248Z,1004.81
2018-12-16T11:59:07.223Z,1004.80
2018-12-16T12:00:07.196Z,1004.81
2018-12-16T12:01:07.169Z,1004.79
2018-12-16T12:02:07.140Z,1004.78
2018-12-16T12:03:07.115Z,1004.76
2018-12-16T12:04:07.088Z,1004.74
2018-12-16T12:05:07.060Z,1004.78